createdAt,value
2023-04-08T06:50:24.078Z,34.45
2023-04-08T06:55:25.635Z,32.78
2023-04-08T07:00:27.186Z,31.45
2023-04-08T07:05:32.193Z,31.98
2023-04-08T07:10:34.925Z,33.90
2023-04-08T07:15:36.391Z,29.70
2023-04-08T07:20:37.938Z,35.75
2023-04-08T07:25:39.443Z,33.33
2023-04-08T07:35:45.283Z,35.95
2023-04-08T07:40:46.814Z,37.83
2023-04-08T07:45:48.284Z,35.85
2023-04-08T07:51:08.328Z,38.67
2023-04-08T07:56:12.182Z,35.10
2023-04-08T08:01:17.448Z,36.78
2023-04-08T08:06:18.930Z,33.65
2023-04-08T08:11:20.230Z,37.08
2023-04-08T08:16:21.686Z,35.90
2023-04-08T08:21:23.226Z,34.33
2023-04-08T08:26:24.805Z,34.88
2023-04-08T08:31:26.253Z,33.97
2023-04-08T08:36:27.672Z,35.63
2023-04-08T08:41:33.390Z,35.38
2023-04-08T08:46:35.998Z,38.17
2023-04-08T08:51:37.856Z,39.42
2023-04-08T08:56:39.534Z,39.17
2023-04-08T09:01:45.110Z,43.13
2023-04-08T09:12:33.388Z,38.53
2023-04-08T09:28:41.916Z,42.78
2023-04-08T09:50:20.004Z,54.45
2023-04-08T09:55:22.812Z,57.30
2023-04-08T10:00:31.810Z,60.63
2023-04-08T10:05:36.202Z,56.63
2023-04-08T10:10:45.113Z,51.10
2023-04-08T10:21:05.808Z,45.13
2023-04-08T10:27:24.658Z,39.60
2023-04-08T10:32:14.215Z,45.08
2023-04-08T10:37:16.151Z,40.08
2023-04-08T10:42:25.782Z,45.70
2023-04-08T10:47:35.869Z,40.10
2023-04-08T10:52:46.268Z,39.90
2023-04-08T10:57:47.993Z,43.20
2023-04-08T11:03:01.091Z,42.72
2023-04-08T11:08:09.883Z,38.60
2023-04-08T11:13:23.376Z,46.85
2023-04-08T11:18:26.375Z,47.20
2023-04-08T11:28:43.460Z,46.63
2023-04-08T11:39:22.697Z,43.25
2023-04-08T11:44:34.382Z,43.70
2023-04-08T11:49:48.636Z,40.25
2023-04-08T11:55:22.803Z,44.75
2023-04-08T12:06:23.331Z,38.53
2023-04-08T12:11:33.180Z,41.75
2023-04-08T12:21:56.651Z,43.28
2023-04-08T12:27:00.743Z,39.00
2023-04-08T12:32:14.030Z,44.85
2023-04-08T12:37:55.588Z,44.03
2023-04-08T12:42:54.259Z,34.30
2023-04-08T12:48:05.251Z,39.40
2023-04-08T12:58:32.132Z,41.97
2023-04-08T13:03:33.758Z,44.03
2023-04-08T13:08:39.658Z,36.40
2023-04-08T13:13:42.575Z,42.28
2023-04-08T13:19:13.303Z,33.90
2023-04-08T13:24:22.313Z,21.98
2023-04-08T13:40:21.182Z,15.82
2023-04-08T13:45:22.665Z,14.45
2023-04-08T13:50:30.637Z,8.32
2023-04-08T13:55:36.068Z,8.70
2023-04-08T14:00:42.404Z,9.45
2023-04-08T14:11:24.851Z,13.38
2023-04-08T14:16:29.261Z,12.00
2023-04-08T14:21:37.111Z,10.88
2023-04-08T14:26:41.704Z,9.07
2023-04-08T14:31:43.128Z,9.38
2023-04-08T14:36:44.491Z,9.63
2023-04-08T14:41:45.876Z,11.68
2023-04-08T14:46:47.305Z,9.32
2023-04-08T14:51:49.416Z,10.50
2023-04-08T14:56:51.604Z,9.90
2023-04-08T15:02:02.193Z,12.68
2023-04-08T15:07:03.766Z,11.73
2023-04-08T15:12:05.382Z,12.93
2023-04-08T15:17:06.924Z,12.70
2023-04-08T15:22:08.528Z,13.88
2023-04-08T15:27:11.194Z,14.90
2023-04-08T15:32:12.844Z,18.23
2023-04-08T15:37:14.421Z,17.85
2023-04-08T15:42:18.718Z,17.88
2023-04-08T15:47:20.131Z,19.85
2023-04-08T15:52:21.414Z,22.10
2023-04-08T15:57:22.877Z,18.95
2023-04-08T16:02:25.030Z,15.65
2023-04-08T16:07:26.617Z,15.95
2023-04-08T16:12:28.175Z,18.02
2023-04-08T16:17:29.581Z,17.00
2023-04-08T16:22:30.984Z,14.32
2023-04-08T16:27:34.757Z,17.80
2023-04-08T16:32:36.207Z,20.10
2023-04-08T16:37:37.677Z,18.08
2023-04-08T16:42:39.154Z,18.10
2023-04-08T16:47:40.810Z,17.85
2023-04-08T16:52:42.349Z,18.00
2023-04-08T16:57:43.730Z,17.88
2023-04-08T17:02:45.278Z,16.40
2023-04-08T17:07:46.790Z,17.67
2023-04-08T17:12:48.154Z,17.52
2023-04-08T17:17:49.638Z,18.30
2023-04-08T17:22:51.150Z,19.38
2023-04-08T17:27:52.633Z,17.98
2023-04-08T17:32:54.009Z,19.85
2023-04-08T17:37:55.413Z,18.35
2023-04-08T17:42:56.818Z,16.73
2023-04-08T17:47:58.289Z,18.88
2023-04-08T17:52:59.905Z,18.52
2023-04-08T17:58:01.505Z,19.48
2023-04-08T18:03:03.015Z,20.60
